Time;durP1;ratioP1;P1;durP2;ratioP2;P2;SDS_P1;SDS_P2;PMS_P1;PMS_P2;Temp;Humidity;BMP_temperature;BMP_pressure;BME280_temperature;BME280_humidity;BME280_pressure;Samples;Min_cycle;Max_cycle;Signal;HPM_P1;HPM_P2
2021/08/16 00:00:02;;;;;;;15.97;12.30;;;18.70;99.90;;;;;;5113029;28;21041;-67
2021/08/16 00:02:29;;;;;;;14.33;12.83;;;18.70;99.90;;;;;;5113899;28;20539;-67
2021/08/16 00:04:56;;;;;;;15.00;13.03;;;18.70;99.90;;;;;;5113724;28;20528;-68
2021/08/16 00:07:23;;;;;;;12.50;11.20;;;18.60;99.90;;;;;;5113722;28;20524;-68
2021/08/16 00:09:50;;;;;;;13.23;10.90;;;18.60;99.90;;;;;;5112790;28;20441;-67
2021/08/16 00:12:17;;;;;;;13.10;11.80;;;18.60;99.90;;;;;;5113667;28;20451;-69
2021/08/16 00:14:46;;;;;;;15.30;12.20;;;18.60;99.90;;;;;;5113394;28;20448;-68
2021/08/16 00:17:13;;;;;;;14.37;12.10;;;18.50;99.90;;;;;;5113794;28;20543;-68
2021/08/16 00:19:40;;;;;;;13.00;10.83;;;18.50;99.90;;;;;;5112865;28;20917;-67
2021/08/16 00:22:07;;;;;;;13.80;12.00;;;18.50;99.90;;;;;;5113884;28;20448;-67
2021/08/16 00:24:34;;;;;;;14.37;12.97;;;18.50;99.90;;;;;;5113139;28;20595;-68
2021/08/16 00:27:01;;;;;;;12.73;11.33;;;18.50;99.90;;;;;;5113667;28;20483;-68
2021/08/16 00:29:28;;;;;;;13.77;12.37;;;18.50;99.90;;;;;;5112938;28;20449;-68
2021/08/16 00:31:56;;;;;;;13.10;11.80;;;18.50;99.90;;;;;;5113355;28;20463;-68
2021/08/16 00:34:23;;;;;;;13.30;11.90;;;18.60;99.90;;;;;;5113075;27;20441;-68
2021/08/16 00:36:51;;;;;;;14.70;12.70;;;18.70;99.90;;;;;;5113491;28;20439;-68
2021/08/16 00:39:18;;;;;;;15.10;12.33;;;18.70;99.90;;;;;;5112304;28;20556;-68
2021/08/16 00:41:46;;;;;;;15.00;12.90;;;18.70;99.90;;;;;;5111493;28;21055;-68
2021/08/16 00:44:13;;;;;;;13.93;12.53;;;18.70;99.90;;;;;;5112318;28;20481;-67
2021/08/16 00:46:41;;;;;;;13.50;11.33;;;18.70;99.90;;;;;;5113665;28;20548;-68
2021/08/16 00:49:09;;;;;;;13.40;12.07;;;18.80;99.90;;;;;;5112630;28;20460;-68
2021/08/16 00:51:38;;;;;;;12.67;11.37;;;18.80;99.90;;;;;;5113253;28;20465;-68
2021/08/16 00:54:07;;;;;;;13.90;11.67;;;18.90;99.90;;;;;;5113241;28;20525;-68
2021/08/16 00:56:36;;;;;;;14.67;12.00;;;19.00;99.90;;;;;;5112593;28;20536;-68
2021/08/16 00:59:04;;;;;;;13.73;12.00;;;18.90;99.90;;;;;;5112280;28;20506;-67
2021/08/16 01:01:31;;;;;;;16.53;11.90;;;19.00;99.90;;;;;;5113204;28;20500;-68
2021/08/16 01:03:58;;;;;;;17.43;12.93;;;19.00;99.90;;;;;;5112928;28;20584;-68
2021/08/16 01:06:26;;;;;;;12.93;11.63;;;18.90;99.90;;;;;;5112400;28;20529;-68
2021/08/16 01:08:53;;;;;;;21.60;13.13;;;18.90;99.90;;;;;;5112511;28;20449;-68
2021/08/16 01:11:20;;;;;;;15.67;12.20;;;19.00;99.90;;;;;;5112127;28;20457;-68
2021/08/16 01:13:49;;;;;;;13.40;11.20;;;19.00;99.90;;;;;;5112604;28;20442;-68
2021/08/16 01:16:17;;;;;;;15.40;11.27;;;19.00;99.90;;;;;;5112225;28;20939;-68
2021/08/16 01:18:44;;;;;;;14.40;12.47;;;19.00;99.90;;;;;;5112450;28;20460;-68
2021/08/16 01:21:13;;;;;;;13.43;11.13;;;18.90;99.90;;;;;;5111270;28;20556;-68
2021/08/16 01:23:43;;;;;;;14.10;11.87;;;18.90;99.90;;;;;;5112359;28;20513;-68
2021/08/16 01:26:10;;;;;;;14.70;11.60;;;18.90;99.90;;;;;;5111612;28;20448;-68
2021/08/16 01:28:39;;;;;;;12.43;10.97;;;18.90;99.90;;;;;;5112219;28;20445;-68
2021/08/16 01:31:08;;;;;;;13.00;11.70;;;19.00;99.90;;;;;;5111432;28;20572;-68
2021/08/16 01:33:37;;;;;;;13.30;10.90;;;19.00;99.90;;;;;;5112311;28;20529;-68
2021/08/16 01:36:04;;;;;;;13.60;12.20;;;19.00;99.90;;;;;;5111923;28;20531;-68
2021/08/16 01:38:33;;;;;;;12.77;10.97;;;19.00;99.90;;;;;;5111979;28;20455;-67
2021/08/16 01:41:00;;;;;;;12.90;11.40;;;18.90;99.90;;;;;;5110907;28;20480;-67
2021/08/16 01:43:28;;;;;;;12.93;11.53;;;18.90;99.90;;;;;;5111988;28;20483;-68
2021/08/16 01:45:56;;;;;;;16.00;12.53;;;18.90;99.90;;;;;;5111995;28;20540;-68
2021/08/16 01:48:23;;;;;;;15.90;11.43;;;18.80;99.90;;;;;;5112417;28;20451;-68
2021/08/16 01:50:50;;;;;;;13.67;12.27;;;18.80;99.90;;;;;;5110803;28;20501;-68
2021/08/16 01:53:17;;;;;;;13.70;12.37;;;18.70;99.90;;;;;;5111591;28;20441;-68
2021/08/16 01:55:44;;;;;;;14.03;11.70;;;18.60;99.90;;;;;;5110569;28;20457;-68
2021/08/16 01:58:11;;;;;;;12.33;11.13;;;18.60;99.90;;;;;;5111687;28;20983;-68
2021/08/16 02:00:39;;;;;;;16.00;11.73;;;18.60;99.90;;;;;;5110936;28;20461;-68
2021/08/16 02:03:07;;;;;;;15.83;13.50;;;18.60;99.90;;;;;;5111544;28;20831;-68
2021/08/16 02:05:34;;;;;;;12.93;11.63;;;18.50;99.90;;;;;;5111344;28;20445;-68
2021/08/16 02:08:01;;;;;;;14.07;12.57;;;18.60;99.90;;;;;;5111573;28;20453;-68
2021/08/16 02:10:29;;;;;;;14.23;12.40;;;18.60;99.90;;;;;;5110654;28;20842;-68
2021/08/16 02:12:56;;;;;;;15.20;13.17;;;18.60;99.90;;;;;;5111771;28;20520;-68
2021/08/16 02:15:23;;;;;;;14.20;12.77;;;18.50;99.90;;;;;;5111025;28;20445;-68
2021/08/16 02:17:50;;;;;;;13.97;12.30;;;18.60;99.90;;;;;;5111847;28;20456;-68
2021/08/16 02:20:18;;;;;;;15.07;13.20;;;18.60;99.90;;;;;;5110269;28;20859;-68
2021/08/16 02:22:45;;;;;;;14.23;12.87;;;18.60;99.90;;;;;;5111240;28;20449;-68
2021/08/16 02:25:12;;;;;;;17.40;14.00;;;18.70;99.90;;;;;;5110879;28;20472;-68
2021/08/16 02:27:44;;;;;;;14.90;12.70;;;18.70;99.90;;;;;;5111085;28;20445;-68
2021/08/16 02:30:13;;;;;;;13.40;12.10;;;18.80;99.90;;;;;;5110241;28;20560;-68
2021/08/16 02:32:39;;;;;;;15.77;12.90;;;18.80;99.90;;;;;;5111007;28;20529;-69
2021/08/16 02:35:07;;;;;;;14.00;12.40;;;18.80;99.90;;;;;;5110647;28;20442;-68
2021/08/16 02:37:35;;;;;;;14.17;12.77;;;18.80;99.90;;;;;;5110856;28;20452;-68
2021/08/16 02:40:03;;;;;;;14.50;12.23;;;18.90;99.90;;;;;;5110332;28;20465;-68
2021/08/16 02:42:30;;;;;;;14.70;13.17;;;18.90;99.90;;;;;;5111087;28;20491;-68
2021/08/16 02:44:56;;;;;;;15.63;14.03;;;18.90;99.90;;;;;;5110461;28;20874;-67
2021/08/16 02:47:23;;;;;;;13.70;12.30;;;18.90;99.90;;;;;;5110998;28;20535;-68
2021/08/16 02:49:51;;;;;;;14.50;12.53;;;18.90;99.90;;;;;;5110074;28;20548;-68
2021/08/16 02:52:18;;;;;;;13.37;11.97;;;19.00;99.90;;;;;;5111063;28;20575;-68
2021/08/16 02:54:46;;;;;;;12.43;11.20;;;19.10;99.90;;;;;;5110714;28;20441;-67
2021/08/16 02:57:13;;;;;;;15.40;13.10;;;19.00;99.90;;;;;;5111002;28;20445;-68
2021/08/16 02:59:40;;;;;;;13.70;11.50;;;19.10;99.90;;;;;;5109918;28;20453;-68
2021/08/16 03:02:07;;;;;;;13.93;11.17;;;19.20;99.90;;;;;;5110871;28;20445;-68
2021/08/16 03:04:35;;;;;;;14.73;12.57;;;19.30;99.90;;;;;;5110363;28;20485;-68
2021/08/16 03:07:02;;;;;;;15.20;13.60;;;19.30;99.90;;;;;;5110377;28;20973;-68
2021/08/16 03:09:29;;;;;;;17.00;13.53;;;19.40;99.90;;;;;;5109865;28;20973;-68
2021/08/16 03:11:58;;;;;;;18.50;13.50;;;19.50;99.90;;;;;;5110417;28;20465;-68
2021/08/16 03:14:25;;;;;;;15.40;13.80;;;19.50;99.90;;;;;;5109981;28;20448;-69
2021/08/16 03:16:52;;;;;;;15.53;13.17;;;19.60;99.90;;;;;;5110713;28;20832;-68
2021/08/16 03:19:19;;;;;;;15.73;14.13;;;19.70;99.90;;;;;;5109166;28;20547;-69
2021/08/16 03:21:46;;;;;;;14.90;13.40;;;19.70;99.90;;;;;;5110518;28;20880;-68
2021/08/16 03:24:12;;;;;;;13.50;12.13;;;19.80;99.90;;;;;;5110134;28;20498;-69
2021/08/16 03:26:39;;;;;;;13.60;12.07;;;20.00;99.90;;;;;;5110703;28;20449;-69
2021/08/16 03:29:08;;;;;;;15.00;13.00;;;20.00;99.90;;;;;;5109953;28;20437;-68
2021/08/16 03:31:35;;;;;;;13.93;12.53;;;20.00;99.90;;;;;;5110358;28;20469;-68
2021/08/16 03:34:01;;;;;;;13.70;12.37;;;20.00;99.90;;;;;;5110235;28;20863;-69
2021/08/16 03:36:28;;;;;;;13.57;12.17;;;20.00;99.90;;;;;;5109841;28;20544;-68
2021/08/16 03:38:55;;;;;;;16.37;13.40;;;20.00;99.90;;;;;;5110038;28;20468;-68
2021/08/16 03:41:22;;;;;;;13.80;12.40;;;20.00;99.90;;;;;;5109624;28;20469;-69
2021/08/16 03:43:50;;;;;;;14.87;13.43;;;20.00;99.90;;;;;;5110201;28;20853;-68
2021/08/16 03:46:18;;;;;;;14.07;12.67;;;20.00;99.90;;;;;;5109979;28;20477;-69
2021/08/16 03:48:45;;;;;;;13.23;12.00;;;20.00;99.90;;;;;;5110402;28;20889;-68
2021/08/16 03:51:12;;;;;;;15.43;12.90;;;20.00;99.90;;;;;;5109302;28;20489;-68
2021/08/16 03:53:39;;;;;;;15.50;12.83;;;20.00;99.90;;;;;;5110084;28;20457;-69
2021/08/16 03:56:10;;;;;;;13.60;12.27;;;20.10;99.90;;;;;;5109781;28;20441;-68
2021/08/16 03:58:37;;;;;;;16.30;12.47;;;20.10;99.90;;;;;;5110024;28;20437;-68
2021/08/16 04:01:04;;;;;;;13.10;11.70;;;20.20;99.90;;;;;;5109164;28;20492;-68
2021/08/16 04:03:32;;;;;;;14.53;12.97;;;20.20;99.90;;;;;;5109698;28;20449;-68
2021/08/16 04:05:59;;;;;;;16.37;14.10;;;20.10;99.90;;;;;;5109470;28;20485;-68
2021/08/16 04:08:26;;;;;;;17.00;13.30;;;20.00;99.90;;;;;;5109649;28;20444;-68
2021/08/16 04:10:53;;;;;;;14.37;12.60;;;19.90;99.90;;;;;;5108877;28;20561;-68
2021/08/16 04:13:20;;;;;;;17.80;13.23;;;19.70;99.90;;;;;;5110194;28;20884;-68
2021/08/16 04:15:47;;;;;;;14.37;12.97;;;19.80;99.90;;;;;;5109523;28;20514;-68
2021/08/16 04:18:14;;;;;;;15.20;13.60;;;19.80;99.90;;;;;;5111021;28;20532;-68
2021/08/16 04:20:42;;;;;;;15.37;13.97;;;19.80;99.90;;;;;;5112699;28;20477;-68
2021/08/16 04:23:09;;;;;;;15.53;12.90;;;19.80;99.90;;;;;;5113538;28;20449;-68
2021/08/16 04:25:36;;;;;;;14.20;12.80;;;19.80;99.90;;;;;;5113271;28;20481;-68
2021/08/16 04:28:03;;;;;;;14.20;12.83;;;19.80;99.90;;;;;;5113736;28;20441;-67
2021/08/16 04:30:30;;;;;;;14.53;13.13;;;19.70;99.90;;;;;;5112489;28;20461;-68
2021/08/16 04:32:57;;;;;;;14.80;13.20;;;19.70;99.90;;;;;;5113465;28;20453;-68
2021/08/16 04:35:24;;;;;;;16.43;13.87;;;19.70;99.90;;;;;;5112734;28;20448;-68
2021/08/16 04:37:52;;;;;;;17.60;12.23;;;19.70;99.90;;;;;;5113205;28;20441;-68
2021/08/16 04:40:19;;;;;;;13.23;11.83;;;19.60;99.90;;;;;;5112201;28;20479;-68
2021/08/16 04:42:46;;;;;;;15.40;11.33;;;19.70;99.90;;;;;;5113343;28;20449;-68
2021/08/16 04:45:13;;;;;;;13.30;10.80;;;19.70;99.90;;;;;;5113126;28;20473;-67
2021/08/16 04:47:43;;;;;;;12.17;10.97;;;19.70;99.90;;;;;;5113207;28;20441;-68
2021/08/16 04:50:10;;;;;;;13.50;10.53;;;19.80;99.90;;;;;;5112064;27;20476;-68
2021/08/16 04:52:37;;;;;;;10.87;9.77;;;19.80;99.90;;;;;;5113287;28;20445;-69
2021/08/16 04:55:07;;;;;;;11.73;10.07;;;19.90;99.90;;;;;;5112807;28;20455;-68
2021/08/16 04:57:36;;;;;;;11.80;10.60;;;19.90;99.90;;;;;;5112987;28;20455;-68
2021/08/16 05:00:05;;;;;;;11.70;10.50;;;19.90;99.90;;;;;;5112377;28;20468;-68
2021/08/16 05:02:32;;;;;;;11.50;10.40;;;19.90;99.90;;;;;;5112630;28;20488;-68
2021/08/16 05:05:06;;;;;;;10.50;9.40;;;19.90;99.90;;;;;;5112325;28;20477;-68
2021/08/16 05:07:33;;;;;;;12.10;10.90;;;19.90;99.90;;;;;;5112936;28;20436;-68
2021/08/16 05:10:00;;;;;;;13.03;11.37;;;19.90;99.90;;;;;;5112097;28;21230;-67
2021/08/16 05:12:28;;;;;;;10.53;9.43;;;19.80;99.90;;;;;;5112610;28;20532;-68
2021/08/16 05:14:55;;;;;;;12.73;9.80;;;19.80;99.90;;;;;;5112095;28;20539;-68
2021/08/16 05:17:22;;;;;;;14.70;10.30;;;19.80;99.90;;;;;;5112505;28;20536;-67
2021/08/16 05:19:49;;;;;;;10.83;9.70;;;19.80;99.90;;;;;;5111753;28;20832;-68
2021/08/16 05:22:16;;;;;;;11.47;9.70;;;19.80;99.90;;;;;;5113260;28;20532;-68
2021/08/16 05:24:43;;;;;;;13.97;9.40;;;19.80;99.90;;;;;;5112242;28;21028;-68
2021/08/16 05:27:10;;;;;;;9.93;8.93;;;19.90;99.90;;;;;;5113052;28;20445;-68
2021/08/16 05:29:38;;;;;;;10.43;9.20;;;20.00;99.90;;;;;;5111267;28;20959;-69
2021/08/16 05:32:05;;;;;;;10.23;9.20;;;20.00;99.90;;;;;;5112073;28;20958;-68
2021/08/16 05:34:32;;;;;;;14.13;8.83;;;20.00;99.90;;;;;;5111829;28;20444;-68
2021/08/16 05:36:59;;;;;;;9.70;8.70;;;20.00;99.90;;;;;;5112160;28;20472;-68
2021/08/16 05:39:26;;;;;;;13.33;9.63;;;19.90;99.90;;;;;;5111167;28;20528;-68
2021/08/16 05:41:53;;;;;;;11.97;9.47;;;20.00;99.90;;;;;;5112020;28;20548;-68
2021/08/16 05:44:20;;;;;;;11.13;8.80;;;20.00;99.90;;;;;;5111431;28;20441;-68
2021/08/16 05:46:48;;;;;;;11.27;8.63;;;20.00;99.90;;;;;;5111820;28;20446;-67
2021/08/16 05:49:15;;;;;;;10.70;8.33;;;20.00;99.90;;;;;;5111107;28;20536;-68
2021/08/16 05:51:42;;;;;;;12.70;7.97;;;20.00;99.90;;;;;;5111942;28;20497;-68
2021/08/16 05:54:08;;;;;;;11.33;9.27;;;20.00;99.90;;;;;;5111389;28;20528;-68
2021/08/16 05:56:35;;;;;;;10.67;7.57;;;20.10;99.90;;;;;;5110969;28;20509;-68
2021/08/16 05:59:02;;;;;;;9.47;7.80;;;20.00;99.90;;;;;;5110590;28;20969;-68
2021/08/16 06:01:33;;;;;;;9.53;7.80;;;20.10;99.90;;;;;;5111055;28;20505;-67
2021/08/16 06:04:01;;;;;;;12.00;7.17;;;20.10;99.90;;;;;;5111392;28;20449;-68
2021/08/16 06:06:28;;;;;;;9.73;7.20;;;20.10;99.90;;;;;;5110815;28;20491;-67
2021/08/16 06:08:56;;;;;;;9.50;6.40;;;20.10;99.90;;;;;;5111460;28;20472;-68
2021/08/16 06:11:23;;;;;;;9.83;6.77;;;20.10;99.90;;;;;;5111127;28;20466;-68
2021/08/16 06:13:50;;;;;;;12.87;7.30;;;20.10;99.90;;;;;;5111359;28;20441;-67
2021/08/16 06:16:17;;;;;;;11.37;6.97;;;20.20;99.90;;;;;;5110846;28;20453;-67
2021/08/16 06:18:45;;;;;;;7.87;5.67;;;20.20;99.90;;;;;;5111242;28;20499;-67
2021/08/16 06:21:13;;;;;;;9.53;5.83;;;20.10;99.90;;;;;;5110164;28;20466;-68
2021/08/16 06:23:40;;;;;;;9.20;6.07;;;20.00;99.90;;;;;;5111190;28;20437;-68
2021/08/16 06:26:08;;;;;;;10.07;6.60;;;20.00;99.90;;;;;;5110689;28;20485;-67
2021/08/16 06:28:35;;;;;;;6.63;5.70;;;19.90;99.90;;;;;;5111086;28;20448;-68
2021/08/16 06:31:02;;;;;;;9.50;5.80;;;19.90;99.90;;;;;;5110221;28;21032;-68
2021/08/16 06:33:30;;;;;;;5.97;5.00;;;19.90;99.90;;;;;;5110763;28;20545;-68
2021/08/16 06:35:57;;;;;;;7.30;4.97;;;19.90;99.90;;;;;;5110651;28;20445;-68
2021/08/16 06:38:26;;;;;;;9.40;5.77;;;19.90;99.90;;;;;;5111020;28;20481;-68
2021/08/16 06:40:54;;;;;;;7.60;5.23;;;19.90;99.90;;;;;;5108332;28;20870;-69
2021/08/16 06:43:22;;;;;;;8.03;5.13;;;19.90;99.90;;;;;;5110856;28;20543;-69
2021/08/16 06:45:49;;;;;;;6.63;5.30;;;19.90;99.90;;;;;;5110331;28;21206;-69
2021/08/16 06:48:17;;;;;;;6.70;5.03;;;20.00;99.90;;;;;;5110804;28;20827;-69
2021/08/16 06:50:45;;;;;;;8.77;6.00;;;20.00;99.90;;;;;;5109551;28;20548;-69
2021/08/16 06:53:13;;;;;;;9.90;4.80;;;20.10;99.90;;;;;;5110390;28;20532;-69
2021/08/16 06:55:42;;;;;;;8.50;4.83;;;20.10;99.90;;;;;;5109899;28;20434;-69
2021/08/16 06:58:08;;;;;;;11.50;5.50;;;20.10;99.90;;;;;;5110523;28;20552;-68
2021/08/16 07:00:35;;;;;;;7.23;5.07;;;20.10;99.90;;;;;;5109268;28;20556;-69
2021/08/16 07:03:02;;;;;;;7.23;4.87;;;20.00;99.90;;;;;;5110014;28;20445;-68
2021/08/16 07:05:29;;;;;;;7.07;5.23;;;20.00;99.90;;;;;;5109818;28;20567;-69
2021/08/16 07:07:56;;;;;;;7.70;4.53;;;20.00;99.90;;;;;;5110021;28;20518;-69
2021/08/16 07:10:23;;;;;;;7.77;4.60;;;20.10;99.90;;;;;;5109142;28;20552;-68
2021/08/16 07:12:52;;;;;;;6.40;4.40;;;20.20;99.90;;;;;;5110286;28;20448;-67
2021/08/16 07:15:18;;;;;;;8.47;5.40;;;20.20;99.90;;;;;;5109926;28;20535;-67
2021/08/16 07:17:45;;;;;;;5.47;4.07;;;20.30;99.90;;;;;;5110430;28;20449;-67
2021/08/16 07:20:12;;;;;;;6.23;4.40;;;20.40;99.90;;;;;;5109263;28;20847;-66
2021/08/16 07:22:39;;;;;;;6.40;5.10;;;20.40;99.90;;;;;;5109939;28;20441;-66
2021/08/16 07:25:07;;;;;;;6.57;4.80;;;20.30;99.90;;;;;;5109828;28;20580;-69
2021/08/16 07:27:33;;;;;;;7.10;5.40;;;20.30;99.90;;;;;;5110036;28;20536;-68
2021/08/16 07:30:02;;;;;;;8.63;5.40;;;20.40;99.90;;;;;;5109166;28;20465;-69
2021/08/16 07:32:28;;;;;;;8.00;5.83;;;20.40;99.90;;;;;;5109922;28;20535;-67
2021/08/16 07:34:55;;;;;;;8.73;6.20;;;20.40;99.90;;;;;;5109270;28;20475;-67
2021/08/16 07:37:22;;;;;;;11.07;5.63;;;20.50;99.90;;;;;;5109911;28;20440;-67
2021/08/16 07:39:49;;;;;;;9.40;5.20;;;20.50;99.90;;;;;;5108876;28;20441;-67
2021/08/16 07:42:17;;;;;;;6.90;4.77;;;20.60;99.90;;;;;;5109889;28;20532;-67
2021/08/16 07:44:45;;;;;;;6.07;4.83;;;20.80;99.90;;;;;;5109604;28;20503;-67
2021/08/16 07:47:13;;;;;;;5.70;4.70;;;20.90;99.90;;;;;;5109569;28;20564;-67
2021/08/16 07:49:39;;;;;;;7.00;5.27;;;21.10;99.90;;;;;;5108511;28;20532;-67
2021/08/16 07:52:07;;;;;;;6.00;4.50;;;21.30;99.90;;;;;;5109581;28;20935;-67
2021/08/16 07:54:34;;;;;;;7.03;4.20;;;21.40;99.90;;;;;;5113068;28;20449;-67
2021/08/16 07:57:01;;;;;;;6.93;4.00;;;21.70;99.90;;;;;;5113578;28;20930;-67
2021/08/16 07:59:27;;;;;;;6.70;4.03;;;21.90;99.90;;;;;;5112835;28;20441;-67
2021/08/16 08:01:54;;;;;;;6.40;4.35;;;21.90;99.90;;;;;;5113039;28;20484;-66
2021/08/16 08:04:23;;;;;;;8.60;4.60;;;21.80;99.90;;;;;;5113121;28;20200;-67
2021/08/16 08:06:49;;;;;;;7.47;4.77;;;21.70;99.90;;;;;;5113371;28;20580;-67
2021/08/16 08:09:16;;;;;;;5.50;3.60;;;21.80;99.90;;;;;;5112858;28;20455;-66
2021/08/16 08:11:43;;;;;;;5.60;3.67;;;21.90;99.90;;;;;;5113445;28;20468;-67
2021/08/16 08:14:10;;;;;;;5.33;3.87;;;22.10;99.90;;;;;;5113515;28;20463;-67
2021/08/16 08:16:37;;;;;;;6.20;3.70;;;22.20;99.90;;;;;;5112938;28;20938;-67
2021/08/16 08:19:04;;;;;;;5.17;3.63;;;22.20;99.90;;;;;;5112680;28;20567;-67
2021/08/16 08:21:32;;;;;;;10.23;4.77;;;22.10;99.90;;;;;;5113272;28;20467;-67
2021/08/16 08:23:59;;;;;;;6.07;3.80;;;21.90;99.90;;;;;;5113512;28;20561;-67
2021/08/16 08:26:25;;;;;;;6.70;4.87;;;22.00;99.90;;;;;;5112810;28;21246;-67
2021/08/16 08:28:52;;;;;;;5.27;4.30;;;21.90;99.90;;;;;;5113275;28;20531;-67
2021/08/16 08:31:19;;;;;;;6.80;4.37;;;21.90;99.90;;;;;;5112410;28;20863;-68
2021/08/16 08:33:46;;;;;;;7.90;5.17;;;22.00;99.90;;;;;;5113110;28;20524;-67
2021/08/16 08:36:13;;;;;;;6.90;4.33;;;22.00;99.90;;;;;;5112695;28;20894;-67
2021/08/16 08:38:41;;;;;;;5.50;4.27;;;22.10;99.90;;;;;;5113132;28;20441;-67
2021/08/16 08:41:08;;;;;;;6.30;4.47;;;21.90;99.90;;;;;;5112006;28;20465;-67
2021/08/16 08:43:35;;;;;;;7.47;5.10;;;21.70;99.90;;;;;;5113203;28;20448;-67
2021/08/16 08:46:02;;;;;;;7.00;4.47;;;21.50;99.90;;;;;;5112675;28;20485;-68
2021/08/16 08:48:30;;;;;;;9.33;3.90;;;21.40;99.90;;;;;;5113050;28;20477;-67
2021/08/16 08:50:56;;;;;;;7.27;4.50;;;21.30;99.90;;;;;;5112385;28;20548;-68
2021/08/16 08:53:23;;;;;;;6.77;4.70;;;21.20;99.90;;;;;;5113019;28;20492;-67
2021/08/16 08:55:52;;;;;;;7.20;4.57;;;21.10;99.90;;;;;;5112322;28;20466;-68
2021/08/16 08:58:19;;;;;;;7.33;4.10;;;21.10;99.90;;;;;;5112592;28;20524;-68
2021/08/16 09:00:46;;;;;;;6.40;4.60;;;21.20;99.90;;;;;;5111961;28;20469;-67
2021/08/16 09:03:13;;;;;;;5.80;4.60;;;21.50;99.90;;;;;;5112401;28;20441;-67
2021/08/16 09:05:51;;;;;;;8.83;5.60;;;21.90;99.90;;;;;;5112056;28;20477;-67
2021/08/16 09:08:29;;;;;;;6.67;5.27;;;21.90;99.90;;;;;;5112302;28;21024;-67
2021/08/16 09:11:09;;;;;;;8.83;5.43;;;21.90;99.90;;;;;;5111348;28;20576;-67
2021/08/16 09:13:36;;;;;;;8.33;5.10;;;21.90;99.90;;;;;;5112511;28;20448;-67
2021/08/16 09:16:10;;;;;;;7.00;4.87;;;22.00;99.90;;;;;;5112112;28;20438;-67
2021/08/16 09:18:37;;;;;;;9.53;4.67;;;21.90;99.90;;;;;;5112271;28;20523;-67
2021/08/16 09:21:04;;;;;;;10.67;5.53;;;21.70;99.90;;;;;;5111429;28;21057;-67
2021/08/16 09:23:47;;;;;;;6.23;4.30;;;21.70;99.90;;;;;;5112455;28;20547;-70
2021/08/16 09:26:23;;;;;;;11.20;5.00;;;21.80;99.90;;;;;;5111961;28;20549;-67
2021/08/16 09:28:50;;;;;;;7.40;4.57;;;22.10;99.90;;;;;;5112589;28;20445;-67
2021/08/16 09:31:20;;;;;;;6.17;4.53;;;22.20;99.90;;;;;;5111633;28;20467;-67
2021/08/16 09:34:00;;;;;;;9.27;4.87;;;22.20;99.90;;;;;;5112169;28;20544;-67
2021/08/16 09:36:35;;;;;;;6.90;4.27;;;22.30;99.90;;;;;;5112129;28;20426;-67
2021/08/16 09:39:02;;;;;;;8.60;4.73;;;22.50;99.90;;;;;;5111274;28;20431;-67
2021/08/16 09:41:31;;;;;;;6.57;4.37;;;22.60;99.90;;;;;;5111848;28;20465;-68
2021/08/16 09:44:09;;;;;;;7.10;4.10;;;22.50;99.90;;;;;;5112017;28;20527;-67
2021/08/16 09:46:36;;;;;;;7.10;4.70;;;22.40;99.90;;;;;;5111630;28;20473;-67
2021/08/16 09:49:04;;;;;;;9.20;4.60;;;22.30;99.90;;;;;;5111277;28;20452;-68
2021/08/16 09:51:31;;;;;;;6.43;4.13;;;22.10;99.90;;;;;;5111776;28;20457;-69
2021/08/16 09:53:59;;;;;;;10.07;4.10;;;22.00;99.90;;;;;;5111669;28;20540;-66
2021/08/16 09:56:26;;;;;;;8.70;5.27;;;21.80;99.90;;;;;;5110819;28;20449;-67
2021/08/16 09:58:55;;;;;;;6.40;5.00;;;21.70;99.90;;;;;;5111262;28;20939;-67
2021/08/16 10:01:22;;;;;;;9.27;4.97;;;21.70;99.90;;;;;;5110895;28;20472;-66
2021/08/16 10:03:49;;;;;;;8.53;4.57;;;21.70;99.90;;;;;;5110919;28;20528;-66
2021/08/16 10:06:18;;;;;;;7.60;4.80;;;21.70;99.90;;;;;;5110310;28;20534;-67
2021/08/16 10:08:49;;;;;;;6.70;3.90;;;21.90;99.90;;;;;;5110758;28;20453;-67
2021/08/16 10:11:18;;;;;;;6.87;3.80;;;22.00;99.90;;;;;;5110027;28;20935;-67
2021/08/16 10:13:48;;;;;;;6.23;4.30;;;22.10;99.90;;;;;;5110807;28;20453;-66
2021/08/16 10:16:20;;;;;;;7.93;3.93;;;22.30;99.90;;;;;;5110022;28;20541;-67
2021/08/16 10:18:52;;;;;;;5.80;3.30;;;22.50;99.90;;;;;;5110989;28;20810;-67
2021/08/16 10:21:21;;;;;;;8.27;3.80;;;22.80;99.90;;;;;;5110612;28;20465;-67
2021/08/16 10:23:49;;;;;;;8.77;3.87;;;22.90;99.90;;;;;;5110845;28;20528;-67
2021/08/16 10:26:27;;;;;;;5.30;3.17;;;22.80;99.90;;;;;;5110397;28;20477;-67
2021/08/16 10:28:56;;;;;;;7.30;3.93;;;22.70;99.90;;;;;;5110455;28;20449;-67
2021/08/16 10:31:28;;;;;;;6.90;4.10;;;22.90;99.90;;;;;;5110440;28;20469;-67
2021/08/16 10:33:55;;;;;;;6.03;3.60;;;22.90;99.90;;;;;;5110577;28;20927;-67
2021/08/16 10:36:23;;;;;;;9.23;4.00;;;23.10;99.90;;;;;;5110039;28;20441;-66
2021/08/16 10:38:51;;;;;;;5.93;3.70;;;23.10;99.90;;;;;;5110152;28;21005;-67
2021/08/16 10:41:29;;;;;;;6.10;3.77;;;22.70;99.90;;;;;;5109941;28;20462;-67
2021/08/16 10:43:57;;;;;;;5.43;3.20;;;22.40;99.90;;;;;;5110443;28;20451;-66
2021/08/16 10:46:25;;;;;;;8.57;3.90;;;22.20;99.90;;;;;;5110093;28;20469;-66
2021/08/16 10:49:04;;;;;;;8.30;5.10;;;22.00;99.90;;;;;;5110081;28;20528;-67
2021/08/16 10:51:42;;;;;;;7.60;4.10;;;22.00;99.90;;;;;;5110404;28;20916;-66
2021/08/16 10:54:21;;;;;;;8.63;4.33;;;22.10;99.90;;;;;;5110478;28;20450;-67
2021/08/16 10:56:51;;;;;;;5.33;3.27;;;22.20;99.90;;;;;;5110496;28;20909;-66
2021/08/16 10:59:20;;;;;;;6.00;3.77;;;22.10;99.90;;;;;;5109504;28;20442;-66
2021/08/16 11:01:48;;;;;;;5.43;3.50;;;22.00;99.90;;;;;;5110330;28;20825;-67
2021/08/16 11:04:26;;;;;;;6.67;3.60;;;21.90;99.90;;;;;;5109879;28;20535;-67
2021/08/16 11:06:54;;;;;;;7.77;3.93;;;22.10;99.90;;;;;;5110092;28;20477;-67
2021/08/16 11:09:25;;;;;;;6.93;3.80;;;22.50;99.90;;;;;;5109181;28;20445;-67
2021/08/16 11:11:54;;;;;;;4.27;3.30;;;22.60;99.90;;;;;;5110205;28;20469;-67
2021/08/16 11:14:24;;;;;;;5.70;3.70;;;22.40;99.90;;;;;;5109662;28;20446;-67
2021/08/16 11:16:52;;;;;;;6.50;3.90;;;22.30;99.90;;;;;;5110163;28;20441;-67
2021/08/16 11:19:22;;;;;;;6.43;3.23;;;22.30;99.90;;;;;;5109020;28;20458;-67
2021/08/16 11:21:57;;;;;;;6.93;4.43;;;22.70;99.90;;;;;;5109893;28;20551;-67
2021/08/16 11:24:32;;;;;;;6.63;3.57;;;23.60;99.90;;;;;;5109781;28;20527;-67
2021/08/16 11:26:59;;;;;;;8.40;3.40;;;24.40;99.90;;;;;;5112082;28;20931;-66
2021/08/16 11:29:28;;;;;;;5.50;3.70;;;24.70;99.90;;;;;;5116232;28;20544;-67
2021/08/16 11:31:58;;;;;;;6.03;3.53;;;25.30;99.90;;;;;;5117145;27;20570;-67
2021/08/16 11:34:27;;;;;;;6.13;3.63;;;24.90;99.90;;;;;;5116454;28;20552;-67
2021/08/16 11:36:56;;;;;;;7.77;3.03;;;24.20;99.90;;;;;;5117167;28;20449;-67
2021/08/16 11:39:33;;;;;;;9.30;4.50;;;23.60;99.90;;;;;;5116295;28;20501;-67
2021/08/16 11:42:01;;;;;;;6.17;3.07;;;23.10;99.90;;;;;;5117318;28;20449;-67
2021/08/16 11:44:29;;;;;;;7.57;4.47;;;22.90;99.90;;;;;;5116643;28;20469;-67
2021/08/16 11:46:59;;;;;;;6.30;3.50;;;22.80;99.90;;;;;;5116711;28;20469;-67
2021/08/16 11:49:32;;;;;;;9.60;3.50;;;22.90;99.90;;;;;;5115761;27;20444;-67
2021/08/16 11:51:59;;;;;;;5.90;3.37;;;23.40;99.90;;;;;;5116736;28;20883;-67
2021/08/16 11:54:31;;;;;;;6.07;4.80;;;24.20;99.90;;;;;;5116228;28;20452;-68
2021/08/16 11:57:00;;;;;;;6.43;3.43;;;24.70;99.90;;;;;;5116560;28;20876;-67
2021/08/16 11:59:27;;;;;;;5.33;3.20;;;24.80;99.90;;;;;;5115839;28;20445;-67
2021/08/16 12:01:57;;;;;;;5.33;3.67;;;24.70;99.90;;;;;;5116466;28;20474;-68
2021/08/16 12:04:25;;;;;;;7.23;3.17;;;24.70;99.90;;;;;;5116278;28;20488;-67
2021/08/16 12:06:54;;;;;;;5.70;3.33;;;24.80;99.90;;;;;;5116315;28;20488;-67
2021/08/16 12:09:31;;;;;;;5.70;4.03;;;24.90;99.90;;;;;;5115505;28;20535;-67
2021/08/16 12:11:59;;;;;;;7.90;4.83;;;24.70;99.90;;;;;;5116466;28;20557;-67
2021/08/16 12:14:30;;;;;;;6.17;3.57;;;24.30;99.90;;;;;;5116138;27;20455;-67
2021/08/16 12:16:57;;;;;;;6.40;3.67;;;24.10;99.90;;;;;;5116475;28;20441;-67
2021/08/16 12:19:25;;;;;;;5.77;3.10;;;23.80;99.90;;;;;;5115354;28;20560;-67
2021/08/16 12:22:03;;;;;;;8.20;3.77;;;23.70;99.90;;;;;;5115967;28;21047;-67
2021/08/16 12:24:30;;;;;;;6.17;3.37;;;23.70;99.90;;;;;;5115473;28;20935;-67
2021/08/16 12:27:02;;;;;;;4.97;3.23;;;24.40;99.90;;;;;;5116064;28;20476;-67
2021/08/16 12:29:29;;;;;;;6.40;3.63;;;25.40;99.90;;;;;;5115559;28;20437;-67
2021/08/16 12:31:56;;;;;;;6.80;3.40;;;26.10;99.90;;;;;;5116109;28;20626;-67
2021/08/16 12:34:33;;;;;;;7.13;3.70;;;25.70;99.90;;;;;;5115993;28;20445;-68
2021/08/16 12:37:01;;;;;;;6.40;3.30;;;25.10;99.90;;;;;;5115995;28;20460;-67
2021/08/16 12:39:33;;;;;;;5.50;3.40;;;24.20;99.90;;;;;;5112474;28;20455;-67
2021/08/16 12:42:08;;;;;;;5.27;3.00;;;24.20;99.90;;;;;;5110797;28;20448;-67